Ana Sayfa
METAR-TAF:

METAR-TAF

Havaalanları :

Graham Municipal Airport

Graham, Teksas, Amerika Birleşik Devletleri

Enlem: 33-06-36N, Boylam: 098-33-19W, yükseklik: 342 m

Güncel hava durumu gözlemi

Rapor saat 16:15 UTC de 32 dakika önce yapıldı.
Rüzgar güneydoğudan 8 kt ve 17 kt'a kadar ani rüzgarlar, doğu/güneydoğu ve güney arasında değişken
Sıcaklık 18°C
Nem 83%
Basınç 1011 hPa
Görüş mesafesi: 16.1 km
Açık gökyüzü

METAR: KRPH 021615Z AUTO 14008G17KT 120V180 10SM CLR 18/15 A2984 RMK AO2 T01770148

Saat: 11:47 (16:47 UTC)


TAF: eksik

4.000'den fazla havaalanı için hava durumu gözlemleri ve tahminleri (METAR ve TAF raporları).

Kullanılabilir istasyonlar harita üzerinde sarı ve kırmızı noktalarla gösterilir.

İstasyonun adını görmek için fareyi noktanın üzerinde gezdirin.

Sonrasında hava gözlem ve tahminlerini görmek için tıklayın.

Haritayı değiştirmek için: yaklaştırmak için siyah artı işaretli yeşil düğmeye ve uzaklaştırmak için de eksi işaretli düğmeye hızla tıklayın; bitişik haritalar için yeşil okları kullanın.


METAR-TAF: